Time;durP1;ratioP1;P1;durP2;ratioP2;P2;SDS_P1;SDS_P2;PMS_P1;PMS_P2;Temp;Humidity;BMP_temperature;BMP_pressure;BME280_temperature;BME280_humidity;BME280_pressure;Samples;Min_cycle;Max_cycle;Signal;HPM_P1;HPM_P2
2022/05/08 00:02:02;;;;;;;9.40;5.20;;;17.00;99.90;;;;;;5056134;28;20044;-74
2022/05/08 00:04:30;;;;;;;17.05;7.50;;;17.00;99.90;;;;;;5040602;28;20445;-74
2022/05/08 00:06:58;;;;;;;17.80;6.07;;;17.00;99.90;;;;;;5056732;28;20050;-74
2022/05/08 00:09:25;;;;;;;13.98;7.30;;;17.00;99.90;;;;;;5056810;28;20047;-74
2022/05/08 00:11:53;;;;;;;8.70;4.55;;;16.90;99.90;;;;;;5057024;28;20083;-74
2022/05/08 00:14:21;;;;;;;15.95;5.90;;;16.90;99.90;;;;;;5073844;28;20074;-75
2022/05/08 00:16:48;;;;;;;13.18;7.00;;;16.80;99.90;;;;;;5091264;28;20079;-75
2022/05/08 00:19:16;;;;;;;12.93;5.65;;;16.80;99.90;;;;;;5056051;28;20151;-74
2022/05/08 00:21:44;;;;;;;11.90;6.47;;;16.80;99.90;;;;;;5051560;28;20475;-74
2022/05/08 00:24:11;;;;;;;16.65;6.57;;;16.90;99.90;;;;;;5053467;28;20056;-73
2022/05/08 00:26:39;;;;;;;10.48;4.88;;;16.90;99.90;;;;;;5042622;28;20746;-74
2022/05/08 00:29:10;;;;;;;11.20;5.22;;;16.90;99.90;;;;;;5069119;28;20044;-74
2022/05/08 00:31:42;;;;;;;12.82;5.85;;;16.90;99.90;;;;;;5068883;28;20530;-75
2022/05/08 00:34:10;;;;;;;13.35;6.55;;;16.90;99.90;;;;;;5054108;28;20048;-76
2022/05/08 00:36:39;;;;;;;8.90;5.18;;;16.80;99.90;;;;;;5091553;28;20040;-74
2022/05/08 00:39:06;;;;;;;13.32;6.55;;;16.80;99.90;;;;;;5067450;28;20097;-74
2022/05/08 00:41:34;;;;;;;15.45;5.03;;;16.80;99.90;;;;;;5066329;28;20029;-75
2022/05/08 00:44:03;;;;;;;14.77;5.57;;;16.80;99.90;;;;;;5054085;28;20151;-77
2022/05/08 00:46:30;;;;;;;16.00;5.95;;;16.80;99.90;;;;;;5032987;28;20102;-74
2022/05/08 00:48:58;;;;;;;10.15;5.55;;;16.70;99.90;;;;;;5033086;28;20048;-75
2022/05/08 00:51:27;;;;;;;9.63;5.97;;;16.70;99.90;;;;;;5038275;28;20048;-75
2022/05/08 00:53:58;;;;;;;16.00;6.80;;;16.80;99.90;;;;;;5046608;28;20117;-75
2022/05/08 00:56:26;;;;;;;13.82;5.63;;;16.80;99.90;;;;;;5069685;28;20049;-74
2022/05/08 00:58:54;;;;;;;11.05;5.30;;;16.80;99.90;;;;;;5056146;28;20509;-75
2022/05/08 01:01:22;;;;;;;9.60;4.68;;;16.90;99.90;;;;;;5072184;28;20125;-75
2022/05/08 01:03:50;;;;;;;13.60;5.43;;;16.90;99.90;;;;;;5073357;28;20067;-75
2022/05/08 01:06:19;;;;;;;10.63;5.30;;;16.90;99.90;;;;;;5090837;28;20479;-74
2022/05/08 01:08:48;;;;;;;15.00;5.55;;;16.90;99.90;;;;;;5073146;28;20040;-74
2022/05/08 01:11:17;;;;;;;14.68;6.57;;;16.80;99.90;;;;;;5056386;28;20051;-75
2022/05/08 01:13:46;;;;;;;12.57;5.55;;;16.80;99.90;;;;;;5072680;28;20068;-75
2022/05/08 01:16:18;;;;;;;16.67;6.60;;;16.80;99.90;;;;;;5056729;28;20048;-75
2022/05/08 01:18:48;;;;;;;12.98;5.22;;;16.70;99.90;;;;;;5055563;28;20055;-75
2022/05/08 01:21:18;;;;;;;11.93;5.40;;;16.70;99.90;;;;;;5056429;28;20577;-75
2022/05/08 01:23:46;;;;;;;13.93;6.45;;;16.70;99.90;;;;;;5056000;28;20498;-74
2022/05/08 01:26:21;;;;;;;10.13;5.78;;;16.60;99.90;;;;;;5055906;28;20414;-75
2022/05/08 01:28:49;;;;;;;19.33;7.07;;;16.70;99.90;;;;;;5056313;28;20409;-74
2022/05/08 01:31:17;;;;;;;9.75;5.32;;;16.70;99.90;;;;;;5076650;28;20449;-74
2022/05/08 01:33:44;;;;;;;16.85;6.85;;;16.70;99.90;;;;;;5076957;28;20047;-75
2022/05/08 01:36:12;;;;;;;13.02;5.32;;;16.60;99.90;;;;;;5060140;28;20046;-74
2022/05/08 01:38:40;;;;;;;10.93;7.20;;;16.60;99.90;;;;;;5076655;28;20051;-75
2022/05/08 01:41:08;;;;;;;14.25;5.90;;;16.40;99.90;;;;;;5059889;28;20091;-74
2022/05/08 01:43:36;;;;;;;19.08;6.35;;;16.40;99.90;;;;;;5076175;28;20043;-76
2022/05/08 01:46:04;;;;;;;9.98;4.82;;;16.40;99.90;;;;;;5060119;28;20056;-74
2022/05/08 01:48:33;;;;;;;13.93;5.28;;;16.40;99.90;;;;;;5059642;28;20474;-74
2022/05/08 01:51:02;;;;;;;11.52;4.95;;;16.40;99.90;;;;;;5076621;28;20120;-74
2022/05/08 01:53:35;;;;;;;14.65;4.85;;;16.50;99.90;;;;;;5059836;28;20436;-75
2022/05/08 01:56:07;;;;;;;17.60;5.70;;;16.50;99.90;;;;;;5042760;28;20482;-75
2022/05/08 01:58:35;;;;;;;12.75;5.13;;;16.40;99.90;;;;;;5043227;28;20048;-75
2022/05/08 02:01:06;;;;;;;18.10;5.72;;;16.50;99.90;;;;;;5075829;28;20048;-75
2022/05/08 02:03:34;;;;;;;14.73;6.07;;;16.40;99.90;;;;;;5075733;28;20051;-76
2022/05/08 02:06:02;;;;;;;20.17;7.25;;;16.40;99.90;;;;;;5075945;28;20135;-75
2022/05/08 02:08:29;;;;;;;9.68;5.03;;;16.20;99.90;;;;;;5059459;28;20062;-75
2022/05/08 02:10:57;;;;;;;11.65;5.63;;;16.10;99.90;;;;;;5069467;28;20164;-75
2022/05/08 02:13:25;;;;;;;14.07;4.82;;;16.10;99.90;;;;;;5055997;28;20053;-74
2022/05/08 02:15:52;;;;;;;18.38;6.43;;;16.10;99.90;;;;;;5055737;28;20689;-74
2022/05/08 02:18:20;;;;;;;18.60;5.70;;;16.10;99.90;;;;;;5038992;28;20676;-75
2022/05/08 02:20:47;;;;;;;15.25;7.03;;;16.20;99.90;;;;;;5055647;28;20056;-75
2022/05/08 02:23:15;;;;;;;12.77;6.65;;;16.20;99.90;;;;;;5038656;28;20144;-75
2022/05/08 02:25:42;;;;;;;14.13;6.20;;;16.20;99.90;;;;;;5039159;28;20094;-75
2022/05/08 02:28:10;;;;;;;10.77;5.25;;;16.20;99.90;;;;;;5055759;28;20044;-75
2022/05/08 02:30:38;;;;;;;15.95;5.10;;;16.20;99.90;;;;;;5039292;28;20147;-75
2022/05/08 02:33:05;;;;;;;10.70;5.45;;;16.30;99.90;;;;;;5055326;28;20052;-75
2022/05/08 02:35:34;;;;;;;9.68;5.22;;;16.30;99.90;;;;;;5055212;28;20673;-75
2022/05/08 02:38:01;;;;;;;13.55;6.40;;;16.30;99.90;;;;;;5073383;28;20495;-75
2022/05/08 02:40:29;;;;;;;13.68;5.25;;;16.30;99.90;;;;;;5038456;28;20063;-75
2022/05/08 02:42:56;;;;;;;18.05;5.72;;;16.30;99.90;;;;;;5038219;28;20534;-74
2022/05/08 02:45:24;;;;;;;26.83;6.22;;;16.30;99.90;;;;;;5038565;28;20047;-75
2022/05/08 02:47:52;;;;;;;12.55;5.03;;;16.30;99.90;;;;;;5054741;28;20040;-75
2022/05/08 02:50:20;;;;;;;8.52;4.88;;;16.30;99.90;;;;;;5055362;28;20048;-75
2022/05/08 02:52:48;;;;;;;11.75;5.90;;;16.20;99.90;;;;;;5055213;28;20465;-75
2022/05/08 02:58:33;;;;;;;18.25;4.90;;;16.20;99.90;;;;;;4955205;28;20557;-75
2022/05/08 03:01:04;;;;;;;15.65;5.88;;;16.20;99.90;;;;;;5035569;28;20054;-75
2022/05/08 03:03:31;;;;;;;13.77;6.75;;;16.30;99.90;;;;;;5066332;28;20070;-76
2022/05/08 03:05:59;;;;;;;16.08;6.90;;;16.20;99.90;;;;;;5041825;28;20138;-74
2022/05/08 03:08:27;;;;;;;17.55;6.88;;;16.20;99.90;;;;;;5055124;28;20044;-75
2022/05/08 03:13:42;;;;;;;14.95;6.03;;;16.10;99.90;;;;;;5074843;28;20044;-74
2022/05/08 03:16:11;;;;;;;22.15;6.53;;;16.20;99.90;;;;;;5074923;28;20464;-75
2022/05/08 03:18:40;;;;;;;13.93;6.18;;;16.10;99.90;;;;;;5074525;28;20701;-75
2022/05/08 03:21:09;;;;;;;16.73;5.82;;;16.10;99.90;;;;;;5058393;28;20383;-75
2022/05/08 03:23:41;;;;;;;18.15;5.88;;;16.20;99.90;;;;;;5074092;28;20142;-75
2022/05/08 03:26:09;;;;;;;21.33;6.10;;;16.20;99.90;;;;;;5058144;28;20048;-75
2022/05/08 03:28:38;;;;;;;16.20;7.00;;;16.20;99.90;;;;;;5074375;28;20506;-75
2022/05/08 03:31:06;;;;;;;18.40;6.13;;;16.20;99.90;;;;;;5074208;28;20787;-75
2022/05/08 03:33:35;;;;;;;14.05;5.63;;;16.20;99.90;;;;;;5074169;28;20498;-75
2022/05/08 03:36:04;;;;;;;13.60;6.00;;;16.20;99.90;;;;;;5074605;28;20071;-75
2022/05/08 03:38:33;;;;;;;18.80;6.43;;;16.20;99.90;;;;;;5074239;28;20048;-75
2022/05/08 03:41:04;;;;;;;12.90;5.53;;;16.20;99.90;;;;;;5074163;28;20131;-75
2022/05/08 03:43:31;;;;;;;19.73;6.10;;;16.20;99.90;;;;;;5057780;28;20568;-75
2022/05/08 03:45:59;;;;;;;13.43;5.05;;;16.20;99.90;;;;;;5058068;28;20052;-75
2022/05/08 03:48:27;;;;;;;13.70;5.18;;;16.10;99.90;;;;;;5057858;28;20055;-75
2022/05/08 03:50:55;;;;;;;12.30;5.82;;;16.10;99.90;;;;;;5040965;28;20054;-75
2022/05/08 03:53:22;;;;;;;13.20;5.43;;;16.20;99.90;;;;;;5090805;28;20054;-75
2022/05/08 03:55:50;;;;;;;15.10;5.03;;;16.20;99.90;;;;;;5070896;28;20059;-75
2022/05/08 03:58:17;;;;;;;10.48;5.13;;;16.20;99.90;;;;;;5057570;28;20052;-75
2022/05/08 04:00:45;;;;;;;20.77;7.40;;;16.20;99.90;;;;;;5074195;28;20044;-75
2022/05/08 04:03:12;;;;;;;16.73;6.47;;;16.20;99.90;;;;;;5056918;28;20141;-75
2022/05/08 04:05:40;;;;;;;12.30;5.05;;;16.20;99.90;;;;;;5057449;28;20052;-75
2022/05/08 04:08:08;;;;;;;12.30;5.47;;;16.20;99.90;;;;;;5057382;28;20052;-75
2022/05/08 04:10:37;;;;;;;14.50;6.10;;;16.20;99.90;;;;;;5057260;28;20516;-75
2022/05/08 04:13:05;;;;;;;9.98;4.88;;;16.20;99.90;;;;;;5056979;28;20101;-75
2022/05/08 04:18:18;;;;;;;17.03;6.17;;;16.20;99.90;;;;;;5053949;28;20105;-75
2022/05/08 04:20:46;;;;;;;17.02;5.85;;;16.30;99.90;;;;;;5038937;28;20286;-74
2022/05/08 04:25:59;;;;;;;11.93;6.57;;;16.40;99.90;;;;;;5061299;28;20052;-74
2022/05/08 04:28:27;;;;;;;13.27;5.63;;;16.40;99.90;;;;;;5069719;28;20052;-75
2022/05/08 04:30:54;;;;;;;8.52;6.28;;;16.40;99.90;;;;;;5054763;28;20052;-74
2022/05/08 04:33:22;;;;;;;20.58;5.53;;;16.40;99.90;;;;;;5070532;28;20055;-75
2022/05/08 04:35:50;;;;;;;12.75;5.30;;;16.40;99.90;;;;;;5060675;28;20090;-74
2022/05/08 04:38:17;;;;;;;17.08;5.95;;;16.40;99.90;;;;;;5069369;28;20040;-75
2022/05/08 04:40:45;;;;;;;9.82;5.25;;;16.30;99.90;;;;;;5073407;28;20044;-75
2022/05/08 04:43:13;;;;;;;14.80;5.53;;;16.30;99.90;;;;;;5072498;28;20039;-75
2022/05/08 04:45:40;;;;;;;16.00;5.15;;;16.30;99.90;;;;;;5071615;28;20135;-75
2022/05/08 04:48:09;;;;;;;23.15;5.78;;;16.30;99.90;;;;;;5056428;28;20135;-75
2022/05/08 04:50:37;;;;;;;13.82;6.03;;;16.30;99.90;;;;;;5073347;28;20043;-75
2022/05/08 04:53:05;;;;;;;14.27;5.68;;;16.30;99.90;;;;;;5056672;28;20097;-76
2022/05/08 04:55:33;;;;;;;18.75;6.15;;;16.40;99.90;;;;;;5055639;28;20063;-75
2022/05/08 04:58:00;;;;;;;12.88;5.80;;;16.50;99.90;;;;;;5073514;28;20097;-76
2022/05/08 05:00:28;;;;;;;17.52;6.88;;;16.50;99.90;;;;;;5056326;28;20059;-77
2022/05/08 05:02:55;;;;;;;13.77;5.75;;;16.60;99.90;;;;;;5055501;28;20117;-76
2022/05/08 05:05:23;;;;;;;16.30;6.57;;;16.70;99.90;;;;;;5056234;28;20060;-76
2022/05/08 05:07:51;;;;;;;13.98;5.25;;;16.70;99.90;;;;;;5056515;28;20146;-75
2022/05/08 05:10:19;;;;;;;12.10;5.63;;;16.80;99.90;;;;;;5056478;28;20048;-75
2022/05/08 05:12:46;;;;;;;13.50;5.28;;;16.80;99.90;;;;;;5056161;28;20524;-75
2022/05/08 05:15:14;;;;;;;14.80;5.43;;;16.80;99.90;;;;;;5072939;28;20410;-76
2022/05/08 05:17:42;;;;;;;9.48;5.20;;;16.80;99.90;;;;;;5055802;28;20157;-75
2022/05/08 05:20:10;;;;;;;9.05;5.30;;;16.80;99.90;;;;;;5056364;28;20044;-75
2022/05/08 05:22:37;;;;;;;12.32;6.30;;;16.80;99.90;;;;;;5072590;28;20047;-75
2022/05/08 05:25:05;;;;;;;9.77;5.40;;;16.80;99.90;;;;;;5056521;28;20048;-75
2022/05/08 05:27:33;;;;;;;10.70;4.90;;;16.80;99.90;;;;;;5055987;28;20040;-75
2022/05/08 05:30:03;;;;;;;19.90;7.45;;;16.80;99.90;;;;;;5056039;28;20036;-75
2022/05/08 05:32:31;;;;;;;13.10;6.18;;;16.80;99.90;;;;;;5039950;28;20091;-76
2022/05/08 05:34:58;;;;;;;16.88;5.88;;;16.80;99.90;;;;;;5056056;28;20135;-75
2022/05/08 05:37:26;;;;;;;23.63;7.28;;;16.80;99.90;;;;;;5055945;28;20052;-75
2022/05/08 05:39:53;;;;;;;12.88;7.03;;;16.80;99.90;;;;;;5054930;28;20136;-76
2022/05/08 05:42:21;;;;;;;10.15;5.30;;;17.00;99.90;;;;;;5055651;28;20501;-75
2022/05/08 05:44:49;;;;;;;12.73;5.38;;;17.10;99.90;;;;;;5044334;28;20442;-75
2022/05/08 05:50:02;;;;;;;17.98;7.10;;;17.20;99.90;;;;;;5052750;28;20044;-75
2022/05/08 05:52:30;;;;;;;15.38;5.35;;;17.30;99.90;;;;;;5070067;28;20048;-75
2022/05/08 05:54:58;;;;;;;12.65;5.18;;;17.20;99.90;;;;;;5055428;28;20048;-75
2022/05/08 05:57:25;;;;;;;14.30;5.57;;;17.40;99.90;;;;;;5072221;28;20056;-75
2022/05/08 05:59:53;;;;;;;17.58;5.53;;;17.50;99.90;;;;;;5056091;28;20171;-75
2022/05/08 06:02:20;;;;;;;11.00;5.55;;;17.70;99.90;;;;;;5089996;28;20084;-75
2022/05/08 06:04:48;;;;;;;13.55;6.13;;;17.90;99.90;;;;;;5072192;28;20578;-76
2022/05/08 06:07:16;;;;;;;10.38;4.82;;;18.00;99.90;;;;;;5055116;28;20164;-75
2022/05/08 06:09:44;;;;;;;9.07;5.88;;;18.20;99.90;;;;;;5054782;28;20048;-75
2022/05/08 06:12:12;;;;;;;10.13;5.55;;;18.40;99.90;;;;;;5055119;28;20051;-75
2022/05/08 06:14:41;;;;;;;10.40;5.65;;;18.60;99.90;;;;;;5090135;28;20044;-75
2022/05/08 06:17:08;;;;;;;13.75;5.63;;;18.50;99.90;;;;;;5074908;28;20573;-74
2022/05/08 06:19:37;;;;;;;14.07;5.70;;;18.40;99.90;;;;;;5058759;28;20726;-75
2022/05/08 06:22:04;;;;;;;12.98;5.88;;;18.40;99.90;;;;;;5058138;28;20040;-75
2022/05/08 06:24:33;;;;;;;11.27;4.90;;;18.40;99.90;;;;;;5059339;28;20063;-75
2022/05/08 06:27:02;;;;;;;13.73;6.13;;;18.30;99.90;;;;;;5091637;28;20131;-76
2022/05/08 06:29:29;;;;;;;12.70;5.20;;;18.30;99.90;;;;;;5059270;28;20105;-75
2022/05/08 06:31:57;;;;;;;10.55;4.93;;;18.40;99.90;;;;;;5042430;28;20510;-75
2022/05/08 06:34:26;;;;;;;12.68;5.45;;;18.50;99.90;;;;;;5093441;28;20109;-75
2022/05/08 06:36:54;;;;;;;15.32;5.28;;;18.50;99.90;;;;;;5058568;28;20047;-75
2022/05/08 06:39:22;;;;;;;10.82;5.25;;;18.60;99.90;;;;;;5058597;28;20087;-76
2022/05/08 06:41:49;;;;;;;16.00;6.22;;;18.80;99.90;;;;;;5075583;28;20082;-75
2022/05/08 06:44:22;;;;;;;14.60;5.82;;;19.00;99.90;;;;;;5075379;28;20089;-76
2022/05/08 06:46:50;;;;;;;11.18;4.60;;;18.80;99.90;;;;;;5042263;28;20051;-75
2022/05/08 06:49:17;;;;;;;13.48;4.95;;;18.80;99.90;;;;;;5058851;28;20058;-75
2022/05/08 06:51:46;;;;;;;9.32;4.55;;;18.70;99.90;;;;;;5058663;28;20092;-75
2022/05/08 06:54:14;;;;;;;14.05;6.03;;;18.60;99.90;;;;;;5075439;28;20069;-75
2022/05/08 06:56:44;;;;;;;18.00;6.78;;;18.60;99.90;;;;;;5075507;28;20044;-77
2022/05/08 07:01:57;;;;;;;8.53;5.20;;;18.90;99.90;;;;;;5057882;28;20048;-75
2022/05/08 07:04:25;;;;;;;11.93;5.57;;;19.10;99.90;;;;;;5058748;28;20440;-75
2022/05/08 07:06:53;;;;;;;11.95;5.47;;;19.40;99.90;;;;;;5058854;28;20044;-74
2022/05/08 07:09:21;;;;;;;11.82;5.40;;;19.50;99.90;;;;;;5058414;28;20055;-75
2022/05/08 07:11:48;;;;;;;12.27;4.88;;;19.60;99.90;;;;;;5057941;28;20048;-75
2022/05/08 07:14:17;;;;;;;9.50;4.63;;;19.70;99.90;;;;;;5057947;28;20372;-75
2022/05/08 07:16:45;;;;;;;8.18;5.07;;;19.80;99.90;;;;;;5074800;28;20052;-75
2022/05/08 07:19:12;;;;;;;13.90;5.38;;;19.90;99.90;;;;;;5057932;28;20047;-77
2022/05/08 07:21:40;;;;;;;9.27;4.88;;;19.90;99.90;;;;;;5055846;28;20131;-74
2022/05/08 07:24:08;;;;;;;9.80;4.35;;;20.10;99.90;;;;;;5041571;28;20079;-75
2022/05/08 07:26:36;;;;;;;11.85;5.72;;;20.20;99.90;;;;;;5074270;28;20048;-74
2022/05/08 07:29:04;;;;;;;8.93;4.93;;;20.20;99.90;;;;;;5041611;28;20084;-75
2022/05/08 07:31:32;;;;;;;12.43;5.72;;;20.30;99.50;;;;;;5074725;28;20044;-75
2022/05/08 07:36:46;;;;;;;13.43;5.40;;;20.40;99.20;;;;;;5057686;28;20051;-75
2022/05/08 07:39:14;;;;;;;11.88;4.80;;;20.60;99.40;;;;;;5057700;28;20059;-75
2022/05/08 07:41:41;;;;;;;10.23;4.53;;;20.60;99.40;;;;;;5074079;28;20083;-75
2022/05/08 07:44:09;;;;;;;8.82;4.93;;;20.60;99.50;;;;;;5073652;28;20056;-74
2022/05/08 07:46:36;;;;;;;8.63;4.38;;;20.60;99.30;;;;;;5058002;28;20044;-74
2022/05/08 07:49:04;;;;;;;9.98;4.10;;;20.70;98.90;;;;;;5057258;28;20485;-75
2022/05/08 07:51:32;;;;;;;9.77;3.90;;;20.80;98.70;;;;;;5057466;28;20639;-74
2022/05/08 07:53:59;;;;;;;10.10;4.93;;;20.50;98.60;;;;;;5073725;28;20046;-75
2022/05/08 07:56:28;;;;;;;8.77;4.63;;;20.40;98.40;;;;;;5091683;28;20108;-74
2022/05/08 07:58:56;;;;;;;9.50;5.00;;;20.50;98.00;;;;;;5057088;28;20501;-75
2022/05/08 08:01:23;;;;;;;7.25;4.68;;;20.70;98.50;;;;;;5073856;28;20493;-75
2022/05/08 08:04:01;;;;;;;7.10;4.07;;;20.90;98.10;;;;;;5048027;28;20048;-75
2022/05/08 08:06:29;;;;;;;8.65;3.92;;;20.80;98.20;;;;;;5071018;28;20049;-74
2022/05/08 08:08:58;;;;;;;14.77;3.92;;;20.90;97.50;;;;;;5056696;28;20079;-75
2022/05/08 08:11:28;;;;;;;13.10;5.47;;;20.90;98.00;;;;;;5041032;28;20086;-74
2022/05/08 08:13:56;;;;;;;7.93;4.22;;;20.70;97.30;;;;;;5091841;28;20394;-74
2022/05/08 08:16:24;;;;;;;12.23;6.07;;;20.80;97.60;;;;;;5073700;28;20064;-74
2022/05/08 08:18:54;;;;;;;10.20;5.43;;;20.90;97.80;;;;;;5054695;28;20510;-75
2022/05/08 08:21:22;;;;;;;7.50;4.82;;;20.70;98.60;;;;;;5091479;28;20052;-75
2022/05/08 08:23:50;;;;;;;12.65;4.93;;;20.90;98.30;;;;;;5040215;28;20052;-75
2022/05/08 08:26:18;;;;;;;6.75;4.03;;;20.80;97.50;;;;;;5073169;28;20054;-73
2022/05/08 08:28:46;;;;;;;9.57;5.07;;;20.80;97.80;;;;;;5091653;28;20553;-74
2022/05/08 08:31:14;;;;;;;5.95;4.07;;;20.60;96.60;;;;;;5056272;28;20051;-74
2022/05/08 08:33:45;;;;;;;8.38;3.78;;;20.60;96.50;;;;;;5057029;28;20065;-74
2022/05/08 08:36:14;;;;;;;8.68;4.28;;;20.60;96.20;;;;;;5056529;28;20048;-74
2022/05/08 08:38:42;;;;;;;8.57;3.85;;;20.70;95.80;;;;;;5055841;28;20040;-75
2022/05/08 08:41:14;;;;;;;6.95;3.53;;;20.80;96.00;;;;;;5056277;28;20569;-74
2022/05/08 08:49:22;;;;;;;9.20;5.35;;;20.90;95.80;;;;;;5056264;28;20048;-74
2022/05/08 08:51:51;;;;;;;8.50;3.97;;;20.90;96.80;;;;;;5040177;28;20090;-74
2022/05/08 08:54:20;;;;;;;8.38;3.67;;;21.10;96.30;;;;;;5055140;28;20116;-74
2022/05/08 08:56:49;;;;;;;11.80;5.03;;;21.20;96.00;;;;;;5070690;28;20052;-75
2022/05/08 08:59:21;;;;;;;6.97;4.20;;;21.20;95.20;;;;;;5051852;28;20044;-74
2022/05/08 09:01:49;;;;;;;12.02;4.45;;;21.00;95.30;;;;;;5053090;28;20059;-74
2022/05/08 09:04:18;;;;;;;10.40;4.22;;;21.10;96.00;;;;;;5076829;28;20147;-74
2022/05/08 09:06:46;;;;;;;9.63;4.88;;;21.30;95.60;;;;;;5088588;28;20072;-77
2022/05/08 09:09:26;;;;;;;7.07;4.40;;;21.20;95.00;;;;;;5052662;28;20135;-74
2022/05/08 09:11:56;;;;;;;10.07;3.50;;;21.10;95.50;;;;;;5053104;28;20044;-76
2022/05/08 09:14:31;;;;;;;6.50;3.38;;;21.00;95.30;;;;;;5036563;28;20056;-75
2022/05/08 09:17:00;;;;;;;7.03;3.92;;;20.80;94.90;;;;;;5049003;28;20072;-74
2022/05/08 09:19:36;;;;;;;8.25;3.90;;;21.10;95.40;;;;;;5039117;28;20052;-75
2022/05/08 09:22:09;;;;;;;7.28;4.13;;;21.10;95.10;;;;;;5061473;28;20052;-75
2022/05/08 09:24:54;;;;;;;8.25;4.68;;;21.30;94.20;;;;;;5054413;28;20072;-75
2022/05/08 09:27:22;;;;;;;7.68;4.00;;;21.40;94.60;;;;;;5036431;28;20049;-74
2022/05/08 09:30:07;;;;;;;12.15;5.68;;;21.30;94.40;;;;;;5046033;28;20114;-74
2022/05/08 09:32:42;;;;;;;12.57;5.28;;;21.30;94.50;;;;;;5060115;28;20048;-74
2022/05/08 09:35:09;;;;;;;7.53;3.58;;;21.60;94.50;;;;;;5076672;28;20436;-75
2022/05/08 09:37:53;;;;;;;6.65;3.95;;;21.60;93.90;;;;;;5057194;28;20059;-75
2022/05/08 09:40:22;;;;;;;12.13;5.90;;;21.50;93.80;;;;;;5061398;28;20060;-76
2022/05/08 09:42:49;;;;;;;8.25;3.60;;;21.60;93.20;;;;;;5043405;28;20052;-74
2022/05/08 09:45:17;;;;;;;5.75;3.65;;;21.40;93.60;;;;;;5061261;28;20544;-74
2022/05/08 09:47:49;;;;;;;6.40;3.38;;;21.50;93.10;;;;;;5052495;28;20059;-75
2022/05/08 09:50:18;;;;;;;6.35;3.63;;;21.40;92.70;;;;;;5058381;28;20047;-75
2022/05/08 09:52:46;;;;;;;6.90;3.53;;;21.10;93.30;;;;;;5061398;28;20056;-75
2022/05/08 09:55:22;;;;;;;8.40;4.55;;;21.20;93.20;;;;;;5056941;28;20094;-74
2022/05/08 09:57:50;;;;;;;8.18;3.10;;;21.20;93.30;;;;;;5066494;28;20036;-74
2022/05/08 10:00:18;;;;;;;8.10;3.50;;;21.20;93.60;;;;;;5040421;28;20063;-75
2022/05/08 10:02:45;;;;;;;9.73;4.82;;;21.20;93.90;;;;;;5054845;28;20079;-74
2022/05/08 10:05:15;;;;;;;8.35;3.72;;;21.30;93.20;;;;;;5068833;28;20045;-75
2022/05/08 10:07:43;;;;;;;6.63;4.10;;;21.30;93.60;;;;;;5046855;28;20051;-75
2022/05/08 10:15:48;;;;;;;13.65;4.60;;;21.60;93.90;;;;;;5087415;28;20101;-74
2022/05/08 10:18:23;;;;;;;8.45;3.88;;;21.60;93.90;;;;;;5075994;28;20114;-75
2022/05/08 10:21:13;;;;;;;7.88;4.47;;;21.40;93.10;;;;;;5048222;28;20061;-74
2022/05/08 10:23:43;;;;;;;5.53;3.97;;;21.20;93.90;;;;;;5041694;28;20048;-75
2022/05/08 10:26:20;;;;;;;7.00;4.72;;;21.30;93.40;;;;;;5075911;28;20504;-75
2022/05/08 10:29:10;;;;;;;8.13;3.97;;;21.40;93.30;;;;;;5056974;28;20044;-74
2022/05/08 10:31:42;;;;;;;6.05;4.05;;;21.50;93.10;;;;;;5040832;28;20048;-75
2022/05/08 10:34:10;;;;;;;9.48;4.57;;;21.30;93.90;;;;;;5032353;28;20502;-75
2022/05/08 10:36:40;;;;;;;5.47;3.67;;;21.20;94.70;;;;;;5082202;28;20105;-74
2022/05/08 10:39:37;;;;;;;9.32;4.95;;;21.30;93.80;;;;;;5079072;28;20120;-76
2022/05/08 10:42:05;;;;;;;6.78;4.63;;;21.10;93.60;;;;;;5066935;28;20093;-73
2022/05/08 10:44:39;;;;;;;10.98;5.03;;;21.10;94.00;;;;;;5070030;28;20036;-71
2022/05/08 10:47:36;;;;;;;7.90;4.22;;;21.00;94.00;;;;;;5078705;28;20039;-71
2022/05/08 10:50:07;;;;;;;7.32;3.80;;;21.10;93.90;;;;;;5095697;28;20051;-74
2022/05/08 10:52:43;;;;;;;6.13;3.75;;;21.20;93.50;;;;;;5086244;28;20045;-73
2022/05/08 10:55:17;;;;;;;6.32;3.80;;;21.30;92.90;;;;;;5062384;28;20062;-74
2022/05/08 10:57:50;;;;;;;5.75;4.15;;;21.30;93.10;;;;;;5077402;28;20097;-73
2022/05/08 11:00:19;;;;;;;6.57;3.90;;;21.00;93.30;;;;;;5054578;28;20454;-73
2022/05/08 11:02:55;;;;;;;8.73;4.00;;;21.10;94.10;;;;;;5071590;28;20140;-73
2022/05/08 11:05:36;;;;;;;7.90;3.30;;;21.10;93.90;;;;;;5093830;28;20055;-73
2022/05/08 11:08:10;;;;;;;7.15;4.88;;;21.10;93.90;;;;;;5078430;28;20062;-75
2022/05/08 11:10:42;;;;;;;5.60;3.15;;;20.90;93.80;;;;;;5051135;28;20041;-76
2022/05/08 11:13:15;;;;;;;10.68;4.45;;;20.80;94.40;;;;;;5059070;28;20040;-75
2022/05/08 11:15:45;;;;;;;7.53;3.27;;;20.80;94.60;;;;;;5066671;28;20525;-75
2022/05/08 11:18:20;;;;;;;8.80;3.72;;;20.80;94.00;;;;;;5049346;28;20294;-74
2022/05/08 11:20:59;;;;;;;9.10;4.10;;;21.00;94.20;;;;;;5040274;28;20059;-75
2022/05/08 11:23:44;;;;;;;4.38;3.03;;;21.10;93.70;;;;;;5041065;28;20043;-77
2022/05/08 11:26:14;;;;;;;8.13;3.80;;;21.20;92.50;;;;;;5074593;28;20048;-75
2022/05/08 11:28:48;;;;;;;6.25;3.13;;;21.30;92.80;;;;;;5057891;28;20398;-75
2022/05/08 11:31:19;;;;;;;6.68;4.20;;;21.30;92.20;;;;;;5056846;28;20692;-75
2022/05/08 11:36:35;;;;;;;10.50;3.83;;;21.10;93.00;;;;;;5073095;28;20395;-77
2022/05/08 11:39:12;;;;;;;10.25;3.13;;;21.30;93.10;;;;;;5056611;28;20138;-75
2022/05/08 11:41:50;;;;;;;8.15;3.47;;;21.30;93.20;;;;;;5073411;28;20089;-75
2022/05/08 11:44:23;;;;;;;12.63;4.90;;;21.30;91.80;;;;;;5073085;28;20083;-75
2022/05/08 11:46:51;;;;;;;8.07;3.58;;;21.40;93.30;;;;;;5073360;28;20044;-78
2022/05/08 11:49:26;;;;;;;8.80;3.50;;;21.40;93.50;;;;;;5073032;28;20044;-75
2022/05/08 11:52:22;;;;;;;5.05;3.05;;;21.30;93.50;;;;;;5056901;28;20056;-74
2022/05/08 11:55:01;;;;;;;6.13;3.75;;;21.20;93.20;;;;;;5036224;28;20491;-74
2022/05/08 11:57:28;;;;;;;10.13;4.05;;;21.30;93.30;;;;;;5036575;28;20139;-75
2022/05/08 12:00:11;;;;;;;6.60;2.97;;;21.20;94.00;;;;;;5036244;28;20041;-76
2022/05/08 12:02:49;;;;;;;5.15;3.50;;;21.30;93.30;;;;;;5037568;28;20056;-75
2022/05/08 12:05:22;;;;;;;8.38;3.50;;;21.40;93.90;;;;;;5052413;28;20147;-76
2022/05/08 12:07:51;;;;;;;7.30;3.53;;;21.50;92.90;;;;;;5052973;28;20044;-75
2022/05/08 12:10:20;;;;;;;5.43;3.70;;;21.50;93.10;;;;;;5052726;28;20040;-74
2022/05/08 12:13:04;;;;;;;7.13;3.15;;;21.40;93.20;;;;;;5052339;28;20071;-74
2022/05/08 12:15:32;;;;;;;9.98;4.13;;;21.30;93.00;;;;;;5052614;28;20357;-75
2022/05/08 12:18:02;;;;;;;4.45;2.72;;;21.40;93.20;;;;;;5052377;28;20052;-76
2022/05/08 12:20:36;;;;;;;13.63;5.13;;;21.30;92.70;;;;;;5036057;28;20052;-75
2022/05/08 12:23:10;;;;;;;5.65;3.30;;;21.20;93.10;;;;;;5036299;28;20049;-75
2022/05/08 12:25:40;;;;;;;6.43;3.58;;;20.90;92.70;;;;;;5052692;28;20059;-74
2022/05/08 12:28:10;;;;;;;5.32;4.07;;;20.90;93.40;;;;;;5051598;28;20164;-74
2022/05/08 12:30:38;;;;;;;10.15;3.85;;;21.00;93.50;;;;;;5052461;28;20044;-75
2022/05/08 12:33:05;;;;;;;6.90;3.05;;;20.90;93.10;;;;;;5053538;28;20041;-74
2022/05/08 12:35:36;;;;;;;7.13;4.05;;;21.00;92.20;;;;;;5052980;28;20040;-75
2022/05/08 12:38:04;;;;;;;6.90;4.63;;;21.00;92.30;;;;;;5036555;28;20143;-75
2022/05/08 12:40:32;;;;;;;6.88;2.92;;;21.10;93.30;;;;;;5052749;28;20414;-74
2022/05/08 12:43:03;;;;;;;7.50;3.20;;;21.00;91.80;;;;;;5019823;28;20051;-74
2022/05/08 12:45:31;;;;;;;7.00;3.50;;;20.90;92.40;;;;;;5056325;28;20048;-76
2022/05/08 12:47:58;;;;;;;5.43;3.15;;;20.90;92.30;;;;;;5052716;28;20391;-75
2022/05/08 12:50:26;;;;;;;5.57;3.38;;;20.90;92.30;;;;;;5052800;28;20044;-74
2022/05/08 12:52:56;;;;;;;7.85;4.07;;;20.90;91.80;;;;;;5055834;28;20056;-74
2022/05/08 12:55:24;;;;;;;8.02;3.90;;;21.00;91.50;;;;;;5055438;28;20588;-77
2022/05/08 13:00:42;;;;;;;6.90;3.53;;;20.90;91.90;;;;;;5067835;28;20043;-75
2022/05/08 13:03:11;;;;;;;6.35;3.70;;;20.90;91.50;;;;;;5056434;28;20588;-74
2022/05/08 13:05:41;;;;;;;8.63;3.65;;;21.00;91.50;;;;;;5072579;28;20098;-75
2022/05/08 13:08:10;;;;;;;7.40;3.28;;;21.00;91.20;;;;;;5056468;28;20043;-74
2022/05/08 13:10:39;;;;;;;7.95;3.45;;;21.00;91.80;;;;;;5090206;28;20036;-74
2022/05/08 13:13:06;;;;;;;5.03;2.80;;;21.10;91.80;;;;;;5072519;28;20052;-74
2022/05/08 13:15:34;;;;;;;7.07;3.25;;;21.10;91.50;;;;;;5039627;28;20052;-75
2022/05/08 13:18:02;;;;;;;9.95;3.00;;;21.10;91.30;;;;;;5056222;28;20036;-74
2022/05/08 13:20:29;;;;;;;8.60;3.67;;;20.90;91.60;;;;;;5056093;28;20048;-74
2022/05/08 13:22:57;;;;;;;10.70;4.72;;;20.60;92.60;;;;;;5090670;28;20113;-76
2022/05/08 13:25:25;;;;;;;7.32;3.55;;;20.60;92.80;;;;;;5091633;28;20135;-74
2022/05/08 13:27:52;;;;;;;7.28;4.15;;;20.70;92.40;;;;;;5059912;28;20044;-75
2022/05/08 13:30:20;;;;;;;6.82;3.40;;;20.70;93.10;;;;;;5059777;28;20473;-74